Aktualne dane pomiarowe

Uwaga, wersja testowa! Automatyczne pobieranie danych za pomocą narzędzi lub skryptów to umożliwiających jest zabronione.

Dane meteo z obszaru Polski uzyskane na podstawie depesz SYNOP pobieranych co godzinę z NWS. Najedź myszką na symbol przedstawiony w tabeli, aby uzyskać informacje co do jego znaczenia. Prosimy pamiętać, że to testowa wersja strony, która jeszcze nie jest ukończona. Stworzono również jest krótki FAQ dotyczący korzystania z tej podstrony Anomalie temperatury w chwili obecnej odniesione są do okresu referencyjnego 1951-2016. Okres ten będzie później zmieniony na 1981-2010. Kliknij ikonę aby pobrać plik CSV. Kliknij ikonę aby wygenerować mapę synoptyczną dla danego terminu.

Wybierz Datę:    

        

Zakopane (12625)

Dane terminowe dla wybranej stacji. Kliknij datę, aby otrzymać dane z tego terminu dla wszystkich stacji.

TemperaturaZachmurzenieWiatrCiśnienieOpadyPogoda
 Data t td wb tx tn tg rh  Nt Nl Cl Cm Ch ws wd g1 g2 wx mslp ppp ch 24h 12h t ww ww w1 w2  
2019-07-07 23:00:00 11.6 6.9 8.7--- 7340.0wxwxwxwx0---0- 914.5 1.4---------
2019-07-07 22:00:00 12.2 6.5 8.8--- 6850.0wxwxwx1wx--1- 914.1 1.6---------
2019-07-07 21:00:00 12.7 6.1 8.9--- 6445.0wxwxwx1wx-81- 913.5 1.1---------
2019-07-07 20:00:00 13.1 8.4 10.2--- 7340.0wxwxwxwx2wx-82- 913.1 1.3---------
2019-07-07 19:00:00 14.6 9.8 11.6--- 7345.0wxwxwxwxwx3wx---- 912.5 0.6---------
2019-07-07 18:00:00 16.0 9.6 12.1 24.2 16.0- 6645.0wxwxwxwxwx2wx-92- 912.4 1.0- 1.012wx-w1--
2019-07-07 17:00:00 16.8 11.1 13.2--- 6940.0wxwxwxwxwx3wx---- 911.8 0.8---------
2019-07-07 16:00:00 16.9 12.0 13.7--- 7330.0wxwxwxwxwx3wx8--- 911.9 0.6---wx---
2019-07-07 15:00:00 17.6 12.5 14.3--- 7235.0wxwxwx2wx--2- 911.4 0.0---wx-w1--
2019-07-07 14:00:00 19.0 11.8 14.5--- 6340.0wxwxwx4wx--4- 911.0 -0.2---------
2019-07-07 13:00:00 19.4 13.3 15.5--- 6835.0wxwxwx1wx---- 911.3 0.6---wx---
2019-07-07 12:00:00 20.8 11.7 15.2--- 5630.0wxwxwx2wx-102- 911.4 0.8- 0.06wx---
2019-07-07 11:00:00 20.9 10.1 14.5--- 5050.0wxwxwx4wx---- 911.2 0.7---------
2019-07-07 10:00:00 23.2 6.9 14.1--- 3540.0wxwxwx4wx-94- 910.7 0.2---------
2019-07-07 09:00:00 22.9 7.0 14.0--- 3640.0wxwxwx3wx993- 910.6 -0.3---------
2019-07-07 08:00:00 21.9 6.5 13.4--- 3740.0wxwxwxwxwx4wx-94- 910.5 -0.2---------
2019-07-07 07:00:00 22.0 5.4 13.0--- 3445.0wxwxwxwxwx3wx883- 910.5 -0.1---------
2019-07-07 06:00:00 21.3 5.2 12.6 23.0 17.8 16 3550.0wxwxwxwxwx3wx993- 910.9 0.3- 0.012----- 10.7
2019-07-07 05:00:00 20.5 7.1 13.0--- 4240.0wxwxwxwxwx1wx--1- 910.7 0.1---------
2019-07-07 04:00:00 18.9 6.7 12.1--- 4550.0wx-wxwx1wx--1- 910.6 -0.4---------
2019-07-07 03:00:00 19.5 7.9 12.9--- 4750.0wx-wx1wx-81- 910.6 -0.8---------
2019-07-07 02:00:00 20.3 7.6 13.1--- 4450.0wx-2wx--2- 910.6 -1.1---------
2019-07-07 00:00:00 21.4 8.3 13.9--- 4350.0wx-2wx-102- 911.4 -0.3- 0.06------
2019-07-06 23:00:00 22.5 8.2 14.3--- 4050.0wx-2wx-92- 911.7 -0.5---------
2019-07-06 22:00:00 22.0 8.5 14.3--- 4250.0wx-2wx772- 911.7 -0.9---------
2019-07-06 21:00:00 22.3 6.9 13.7--- 3750.0wx-3wx8103- 911.7 -1.4---------
2019-07-06 20:00:00 18.8 7.6 12.4--- 4840.0wxwxwxwxwx1wx--1- 912.2 -1.1---------
2019-07-06 19:00:00 19.1 7.2 12.4--- 4630.0wxwxwx1wx--1- 912.6 -0.9---------
2019-07-06 18:00:00 22.2 7.2 13.8 24.5 17.2- 3850.0wxwxwxwx1wx-101- 913.1 -0.8- 0.012------
2019-07-06 17:00:00 23.5 6.7 14.2--- 3440.0wxwxwxwxwx3wx--3- 913.3 -0.8---------
2019-07-06 16:00:00 23.5 7.6 14.5--- 3640.0wxwxwxwxwx2wx-82- 913.5 -0.8---------
2019-07-06 15:00:00 23.0 5.0 13.3--- 3145.0wxwxwxwxwx3wx8103- 913.9 -0.5---------
2019-07-06 14:00:00 24.2 6.5 14.4--- 3235.0wxwxwxwxwx4wx10104- 914.1 -0.6---------
2019-07-06 13:00:00 23.9 5.3 13.8--- 3035.0wxwxwxwxwx4wx10104- 914.3 -1.0---------
2019-07-06 12:00:00 23.9 8.7 15.2--- 3835.0wxwxwxwxwx3wx-93- 914.4 -1.4- 0.06------
2019-07-06 11:00:00 22.9 7.8 14.3--- 3835.0wxwxwxwxwx3wx883- 914.7 -1.5---------
2019-07-06 10:00:00 21.5 7.7 13.7--- 4140.0wxwxwxwx3wx-83- 915.3 -1.0---------
2019-07-06 09:00:00 20.8 7.8 13.4--- 4330.0wxwxwxwx3wx-93- 915.8 -0.6---------
2019-07-06 08:00:00 18.8 7.6 12.4--- 4835.0wxwxwxwx3wx993- 916.2 -0.5---------
2019-07-06 07:00:00 17.9 7.3 11.9--- 5040.0wxwxwxwxwx2wx--2- 916.3 -0.5---------
2019-07-06 06:00:00 17.2 8.1 11.9 17.2 13.7 13 5535.0wxwxwxwxwx1wx--1- 916.4 -0.3- 0.012----- 4.1
2019-07-06 05:00:00 15.2 7.7 10.8--- 6145.0wxwxwxwxwx1wx--1- 916.7 -0.2---------
2019-07-06 04:00:00 14.4 7.7 10.4--- 6440.0wxwxwx1wx--1- 916.8 -0.5---------
2019-07-06 03:00:00 14.1 7.4 10.1--- 6450.0wxwxwxwx1wx--1- 916.7 -0.8---------
2019-07-06 02:00:00 13.9 7.4 10.0--- 6550.0wxwxwxwx1wx--1- 916.9 -0.8---------
2019-07-06 01:00:00 13.7 7.2 9.9--- 6550.0wxwxwxwx1wx--1- 917.3 -0.5---------
2019-07-06 00:00:00 14.0 7.5 10.1--- 6550.0wxwxwxwx1wx--1- 917.5 -0.2- 0.06------
3.2 ms

 

Print Friendly, PDF & Email